sensor_id;sensor_type;location;lat;lon;timestamp;temperature;humidity
7494;DHT22;3788;49.902;8.590;2023-07-30T00:00:58;20.70;99.90
7494;DHT22;3788;49.902;8.590;2023-07-30T00:03:25;20.70;99.90
7494;DHT22;3788;49.902;8.590;2023-07-30T00:05:53;20.60;99.90
7494;DHT22;3788;49.902;8.590;2023-07-30T00:08:20;20.60;99.90
7494;DHT22;3788;49.902;8.590;2023-07-30T00:10:46;20.50;99.90
7494;DHT22;3788;49.902;8.590;2023-07-30T00:13:14;20.50;99.90
7494;DHT22;3788;49.902;8.590;2023-07-30T00:15:41;20.50;99.90
7494;DHT22;3788;49.902;8.590;2023-07-30T00:18:08;20.50;99.90
7494;DHT22;3788;49.902;8.590;2023-07-30T00:20:35;20.40;99.90
7494;DHT22;3788;49.902;8.590;2023-07-30T00:23:02;20.40;99.90
7494;DHT22;3788;49.902;8.590;2023-07-30T00:25:28;20.40;99.90
7494;DHT22;3788;49.902;8.590;2023-07-30T00:27:55;20.40;99.90
7494;DHT22;3788;49.902;8.590;2023-07-30T00:30:23;20.50;99.90
7494;DHT22;3788;49.902;8.590;2023-07-30T00:32:50;20.40;99.90
7494;DHT22;3788;49.902;8.590;2023-07-30T00:35:16;20.50;99.90
7494;DHT22;3788;49.902;8.590;2023-07-30T00:37:43;20.50;99.90
7494;DHT22;3788;49.902;8.590;2023-07-30T00:40:10;20.50;99.90
7494;DHT22;3788;49.902;8.590;2023-07-30T00:42:37;20.50;99.90
7494;DHT22;3788;49.902;8.590;2023-07-30T00:45:05;20.50;99.90
7494;DHT22;3788;49.902;8.590;2023-07-30T00:47:33;20.50;99.90
7494;DHT22;3788;49.902;8.590;2023-07-30T00:50:01;20.50;99.90
7494;DHT22;3788;49.902;8.590;2023-07-30T00:52:28;20.50;99.90
7494;DHT22;3788;49.902;8.590;2023-07-30T00:54:57;20.50;99.90
7494;DHT22;3788;49.902;8.590;2023-07-30T00:57:24;20.50;99.90
7494;DHT22;3788;49.902;8.590;2023-07-30T00:59:51;20.50;99.90
7494;DHT22;3788;49.902;8.590;2023-07-30T01:02:18;20.50;99.90
7494;DHT22;3788;49.902;8.590;2023-07-30T01:04:46;20.50;99.90
7494;DHT22;3788;49.902;8.590;2023-07-30T01:07:12;20.50;99.90
7494;DHT22;3788;49.902;8.590;2023-07-30T01:09:39;20.40;99.90
7494;DHT22;3788;49.902;8.590;2023-07-30T01:12:07;20.40;99.90
7494;DHT22;3788;49.902;8.590;2023-07-30T01:14:35;20.40;99.90
7494;DHT22;3788;49.902;8.590;2023-07-30T01:17:03;20.30;99.90
7494;DHT22;3788;49.902;8.590;2023-07-30T01:19:30;20.30;99.90
7494;DHT22;3788;49.902;8.590;2023-07-30T01:21:59;20.30;99.90
7494;DHT22;3788;49.902;8.590;2023-07-30T01:24:26;20.30;99.90
7494;DHT22;3788;49.902;8.590;2023-07-30T01:26:55;20.20;99.90
7494;DHT22;3788;49.902;8.590;2023-07-30T01:29:40;20.20;99.90
7494;DHT22;3788;49.902;8.590;2023-07-30T01:32:10;20.20;99.90
7494;DHT22;3788;49.902;8.590;2023-07-30T01:34:38;20.20;99.90
7494;DHT22;3788;49.902;8.590;2023-07-30T01:37:09;20.10;99.90
7494;DHT22;3788;49.902;8.590;2023-07-30T01:39:37;20.20;99.90
7494;DHT22;3788;49.902;8.590;2023-07-30T01:42:05;20.10;99.90
7494;DHT22;3788;49.902;8.590;2023-07-30T01:44:32;20.10;99.90
7494;DHT22;3788;49.902;8.590;2023-07-30T01:46:58;20.00;99.90
7494;DHT22;3788;49.902;8.590;2023-07-30T01:49:25;20.00;99.90
7494;DHT22;3788;49.902;8.590;2023-07-30T01:51:52;19.90;99.90
7494;DHT22;3788;49.902;8.590;2023-07-30T01:54:20;19.90;99.90
7494;DHT22;3788;49.902;8.590;2023-07-30T01:56:46;19.90;99.90
7494;DHT22;3788;49.902;8.590;2023-07-30T01:59:13;19.90;99.90
7494;DHT22;3788;49.902;8.590;2023-07-30T02:01:40;19.90;99.90
7494;DHT22;3788;49.902;8.590;2023-07-30T02:04:07;19.80;99.90
7494;DHT22;3788;49.902;8.590;2023-07-30T02:06:33;19.80;99.90
7494;DHT22;3788;49.902;8.590;2023-07-30T02:09:00;19.80;99.90
7494;DHT22;3788;49.902;8.590;2023-07-30T02:11:28;19.80;99.90
7494;DHT22;3788;49.902;8.590;2023-07-30T02:13:55;19.80;99.90
7494;DHT22;3788;49.902;8.590;2023-07-30T02:16:21;19.80;99.90
7494;DHT22;3788;49.902;8.590;2023-07-30T02:18:48;19.80;99.90
7494;DHT22;3788;49.902;8.590;2023-07-30T02:21:14;19.80;99.90
7494;DHT22;3788;49.902;8.590;2023-07-30T02:23:41;19.80;99.90
7494;DHT22;3788;49.902;8.590;2023-07-30T02:26:08;19.80;99.90
7494;DHT22;3788;49.902;8.590;2023-07-30T02:28:36;19.80;99.90
7494;DHT22;3788;49.902;8.590;2023-07-30T02:31:02;19.80;99.90
7494;DHT22;3788;49.902;8.590;2023-07-30T02:33:29;19.70;99.90
7494;DHT22;3788;49.902;8.590;2023-07-30T02:35:56;19.60;99.90
7494;DHT22;3788;49.902;8.590;2023-07-30T02:38:22;19.60;99.90
7494;DHT22;3788;49.902;8.590;2023-07-30T02:40:49;19.50;99.90
7494;DHT22;3788;49.902;8.590;2023-07-30T02:43:16;19.50;99.90
7494;DHT22;3788;49.902;8.590;2023-07-30T02:45:47;19.50;99.90
7494;DHT22;3788;49.902;8.590;2023-07-30T02:48:13;19.40;99.90
7494;DHT22;3788;49.902;8.590;2023-07-30T02:50:40;19.40;99.90
7494;DHT22;3788;49.902;8.590;2023-07-30T02:53:07;19.40;99.90
7494;DHT22;3788;49.902;8.590;2023-07-30T02:55:33;19.40;99.90
7494;DHT22;3788;49.902;8.590;2023-07-30T02:58:00;19.40;99.90
7494;DHT22;3788;49.902;8.590;2023-07-30T03:00:27;19.40;99.90
7494;DHT22;3788;49.902;8.590;2023-07-30T03:02:56;19.40;99.90
7494;DHT22;3788;49.902;8.590;2023-07-30T03:05:22;19.40;99.90
7494;DHT22;3788;49.902;8.590;2023-07-30T03:07:49;19.40;99.90
7494;DHT22;3788;49.902;8.590;2023-07-30T03:10:16;19.40;99.90
7494;DHT22;3788;49.902;8.590;2023-07-30T03:12:42;19.50;99.90
7494;DHT22;3788;49.902;8.590;2023-07-30T03:15:09;19.40;99.90
7494;DHT22;3788;49.902;8.590;2023-07-30T03:17:36;19.40;99.90
7494;DHT22;3788;49.902;8.590;2023-07-30T03:20:05;19.40;99.90
7494;DHT22;3788;49.902;8.590;2023-07-30T03:22:32;19.40;99.90
7494;DHT22;3788;49.902;8.590;2023-07-30T03:24:59;19.40;99.90
7494;DHT22;3788;49.902;8.590;2023-07-30T03:27:25;19.40;99.90
7494;DHT22;3788;49.902;8.590;2023-07-30T03:29:52;19.40;99.90
7494;DHT22;3788;49.902;8.590;2023-07-30T03:32:19;19.50;99.90
7494;DHT22;3788;49.902;8.590;2023-07-30T03:34:45;19.50;99.90
7494;DHT22;3788;49.902;8.590;2023-07-30T03:37:13;19.50;99.90
7494;DHT22;3788;49.902;8.590;2023-07-30T03:39:40;19.40;99.90
7494;DHT22;3788;49.902;8.590;2023-07-30T03:42:07;19.40;99.90
7494;DHT22;3788;49.902;8.590;2023-07-30T03:44:33;19.40;99.90
7494;DHT22;3788;49.902;8.590;2023-07-30T03:47:00;19.30;99.90
7494;DHT22;3788;49.902;8.590;2023-07-30T03:49:27;19.30;99.90
7494;DHT22;3788;49.902;8.590;2023-07-30T03:51:53;19.30;99.90
7494;DHT22;3788;49.902;8.590;2023-07-30T03:54:21;19.30;99.90
7494;DHT22;3788;49.902;8.590;2023-07-30T03:56:48;19.30;99.90
7494;DHT22;3788;49.902;8.590;2023-07-30T03:59:15;19.30;99.90
7494;DHT22;3788;49.902;8.590;2023-07-30T04:01:41;19.30;99.90
7494;DHT22;3788;49.902;8.590;2023-07-30T04:04:08;19.30;99.90
7494;DHT22;3788;49.902;8.590;2023-07-30T04:06:34;19.30;99.90
7494;DHT22;3788;49.902;8.590;2023-07-30T04:09:01;19.30;99.90
7494;DHT22;3788;49.902;8.590;2023-07-30T04:11:30;19.30;99.90
7494;DHT22;3788;49.902;8.590;2023-07-30T04:13:56;19.30;99.90
7494;DHT22;3788;49.902;8.590;2023-07-30T04:16:23;19.20;99.90
7494;DHT22;3788;49.902;8.590;2023-07-30T04:18:50;19.30;99.90
7494;DHT22;3788;49.902;8.590;2023-07-30T04:21:16;19.30;99.90
7494;DHT22;3788;49.902;8.590;2023-07-30T04:23:43;19.30;99.90
7494;DHT22;3788;49.902;8.590;2023-07-30T04:26:10;19.30;99.90
7494;DHT22;3788;49.902;8.590;2023-07-30T04:28:37;19.30;99.90
7494;DHT22;3788;49.902;8.590;2023-07-30T04:31:04;19.30;99.90
7494;DHT22;3788;49.902;8.590;2023-07-30T04:33:31;19.30;99.90
7494;DHT22;3788;49.902;8.590;2023-07-30T04:35:57;19.30;99.90
7494;DHT22;3788;49.902;8.590;2023-07-30T04:38:24;19.30;99.90
7494;DHT22;3788;49.902;8.590;2023-07-30T04:40:51;19.30;99.90
7494;DHT22;3788;49.902;8.590;2023-07-30T04:43:17;19.30;99.90
7494;DHT22;3788;49.902;8.590;2023-07-30T04:45:45;19.30;99.90
7494;DHT22;3788;49.902;8.590;2023-07-30T04:48:12;19.30;99.90
7494;DHT22;3788;49.902;8.590;2023-07-30T04:50:38;19.40;99.90
7494;DHT22;3788;49.902;8.590;2023-07-30T04:53:07;19.40;99.90
7494;DHT22;3788;49.902;8.590;2023-07-30T04:55:34;19.40;99.90
7494;DHT22;3788;49.902;8.590;2023-07-30T04:58:00;19.40;99.90
7494;DHT22;3788;49.902;8.590;2023-07-30T05:00:27;19.40;99.90
7494;DHT22;3788;49.902;8.590;2023-07-30T05:02:55;19.40;99.90
7494;DHT22;3788;49.902;8.590;2023-07-30T05:05:22;19.50;99.90
7494;DHT22;3788;49.902;8.590;2023-07-30T05:07:50;19.50;99.90
7494;DHT22;3788;49.902;8.590;2023-07-30T05:10:16;19.50;99.90
7494;DHT22;3788;49.902;8.590;2023-07-30T05:12:43;19.50;99.90
7494;DHT22;3788;49.902;8.590;2023-07-30T05:15:10;19.50;99.90
7494;DHT22;3788;49.902;8.590;2023-07-30T05:17:36;19.50;99.90
7494;DHT22;3788;49.902;8.590;2023-07-30T05:20:06;19.50;99.90
7494;DHT22;3788;49.902;8.590;2023-07-30T05:22:33;19.50;99.90
7494;DHT22;3788;49.902;8.590;2023-07-30T05:24:59;19.50;99.90
7494;DHT22;3788;49.902;8.590;2023-07-30T05:27:26;19.60;99.90
7494;DHT22;3788;49.902;8.590;2023-07-30T05:29:54;19.60;99.90
7494;DHT22;3788;49.902;8.590;2023-07-30T05:32:21;19.70;99.90
7494;DHT22;3788;49.902;8.590;2023-07-30T05:34:47;19.70;99.90
7494;DHT22;3788;49.902;8.590;2023-07-30T05:37:15;19.80;99.90
7494;DHT22;3788;49.902;8.590;2023-07-30T05:39:42;19.80;99.90
7494;DHT22;3788;49.902;8.590;2023-07-30T05:42:09;19.80;99.90
7494;DHT22;3788;49.902;8.590;2023-07-30T05:44:35;19.80;99.90
7494;DHT22;3788;49.902;8.590;2023-07-30T05:47:02;19.80;99.90
7494;DHT22;3788;49.902;8.590;2023-07-30T05:49:30;19.80;99.90
7494;DHT22;3788;49.902;8.590;2023-07-30T05:51:57;19.90;99.90
7494;DHT22;3788;49.902;8.590;2023-07-30T05:54:25;19.90;99.90
7494;DHT22;3788;49.902;8.590;2023-07-30T05:56:52;19.90;99.90
7494;DHT22;3788;49.902;8.590;2023-07-30T05:59:20;20.00;99.90
7494;DHT22;3788;49.902;8.590;2023-07-30T06:01:46;20.10;99.90
7494;DHT22;3788;49.902;8.590;2023-07-30T06:04:13;20.10;99.90
7494;DHT22;3788;49.902;8.590;2023-07-30T06:06:40;20.20;99.90
7494;DHT22;3788;49.902;8.590;2023-07-30T06:09:06;20.20;99.90
7494;DHT22;3788;49.902;8.590;2023-07-30T06:11:34;20.30;99.90
7494;DHT22;3788;49.902;8.590;2023-07-30T06:14:01;20.30;99.90
7494;DHT22;3788;49.902;8.590;2023-07-30T06:16:28;20.40;99.90
7494;DHT22;3788;49.902;8.590;2023-07-30T06:18:54;20.50;99.90
7494;DHT22;3788;49.902;8.590;2023-07-30T06:21:21;20.60;99.90
7494;DHT22;3788;49.902;8.590;2023-07-30T06:23:48;20.70;99.90
7494;DHT22;3788;49.902;8.590;2023-07-30T06:26:14;20.80;99.90
7494;DHT22;3788;49.902;8.590;2023-07-30T06:28:42;20.90;99.90
7494;DHT22;3788;49.902;8.590;2023-07-30T06:31:09;21.10;99.90
7494;DHT22;3788;49.902;8.590;2023-07-30T06:33:36;21.20;99.90
7494;DHT22;3788;49.902;8.590;2023-07-30T06:36:03;21.30;99.90
7494;DHT22;3788;49.902;8.590;2023-07-30T06:38:30;21.30;99.90
7494;DHT22;3788;49.902;8.590;2023-07-30T06:40:56;21.40;99.90
7494;DHT22;3788;49.902;8.590;2023-07-30T06:43:23;21.40;99.90
7494;DHT22;3788;49.902;8.590;2023-07-30T06:45:51;21.50;99.90
7494;DHT22;3788;49.902;8.590;2023-07-30T06:48:18;21.50;99.90
7494;DHT22;3788;49.902;8.590;2023-07-30T06:50:44;21.60;99.90
7494;DHT22;3788;49.902;8.590;2023-07-30T06:53:11;21.70;99.90
7494;DHT22;3788;49.902;8.590;2023-07-30T06:55:39;21.80;99.90
7494;DHT22;3788;49.902;8.590;2023-07-30T06:58:06;21.90;99.90
7494;DHT22;3788;49.902;8.590;2023-07-30T07:00:32;22.00;99.90
7494;DHT22;3788;49.902;8.590;2023-07-30T07:03:00;22.10;99.90
7494;DHT22;3788;49.902;8.590;2023-07-30T07:05:27;22.10;99.90
7494;DHT22;3788;49.902;8.590;2023-07-30T07:07:54;22.10;99.90
7494;DHT22;3788;49.902;8.590;2023-07-30T07:10:21;22.20;99.90
7494;DHT22;3788;49.902;8.590;2023-07-30T07:12:47;22.20;99.90
7494;DHT22;3788;49.902;8.590;2023-07-30T07:15:15;22.20;99.90
7494;DHT22;3788;49.902;8.590;2023-07-30T07:17:41;22.10;99.90
7494;DHT22;3788;49.902;8.590;2023-07-30T07:20:10;22.10;99.90
7494;DHT22;3788;49.902;8.590;2023-07-30T07:22:37;22.10;99.90
7494;DHT22;3788;49.902;8.590;2023-07-30T07:25:04;22.00;99.90
7494;DHT22;3788;49.902;8.590;2023-07-30T07:27:31;21.90;99.90
7494;DHT22;3788;49.902;8.590;2023-07-30T07:29:58;21.70;99.90
7494;DHT22;3788;49.902;8.590;2023-07-30T07:32:24;21.60;99.90
7494;DHT22;3788;49.902;8.590;2023-07-30T07:34:51;21.40;99.90
7494;DHT22;3788;49.902;8.590;2023-07-30T07:37:19;21.30;99.90
7494;DHT22;3788;49.902;8.590;2023-07-30T07:39:46;21.20;99.90
7494;DHT22;3788;49.902;8.590;2023-07-30T07:42:12;21.00;99.90
7494;DHT22;3788;49.902;8.590;2023-07-30T07:44:39;20.90;99.90
7494;DHT22;3788;49.902;8.590;2023-07-30T07:47:07;20.80;99.90
7494;DHT22;3788;49.902;8.590;2023-07-30T07:49:34;20.70;99.90
7494;DHT22;3788;49.902;8.590;2023-07-30T07:52:00;20.60;99.90
7494;DHT22;3788;49.902;8.590;2023-07-30T07:54:28;20.60;99.90
7494;DHT22;3788;49.902;8.590;2023-07-30T07:56:55;20.60;99.90
7494;DHT22;3788;49.902;8.590;2023-07-30T07:59:22;20.60;99.90
7494;DHT22;3788;49.902;8.590;2023-07-30T08:01:48;20.60;99.90
7494;DHT22;3788;49.902;8.590;2023-07-30T08:04:15;20.70;99.90
7494;DHT22;3788;49.902;8.590;2023-07-30T08:06:42;20.80;99.90
7494;DHT22;3788;49.902;8.590;2023-07-30T08:09:09;20.80;99.90
7494;DHT22;3788;49.902;8.590;2023-07-30T08:11:37;20.90;99.90
7494;DHT22;3788;49.902;8.590;2023-07-30T08:14:04;21.10;99.90
7494;DHT22;3788;49.902;8.590;2023-07-30T08:16:31;21.30;99.90
7494;DHT22;3788;49.902;8.590;2023-07-30T08:18:57;21.60;99.90
7494;DHT22;3788;49.902;8.590;2023-07-30T08:21:24;21.90;99.90
7494;DHT22;3788;49.902;8.590;2023-07-30T08:23:51;22.10;99.90
7494;DHT22;3788;49.902;8.590;2023-07-30T08:26:18;22.30;99.90
7494;DHT22;3788;49.902;8.590;2023-07-30T08:28:46;22.70;99.90
7494;DHT22;3788;49.902;8.590;2023-07-30T08:31:12;23.10;99.90
7494;DHT22;3788;49.902;8.590;2023-07-30T08:33:39;23.50;99.90
7494;DHT22;3788;49.902;8.590;2023-07-30T08:36:05;23.90;99.90
7494;DHT22;3788;49.902;8.590;2023-07-30T08:38:32;24.30;99.90
7494;DHT22;3788;49.902;8.590;2023-07-30T08:40:59;24.40;99.30
7494;DHT22;3788;49.902;8.590;2023-07-30T08:43:26;24.50;98.70
7494;DHT22;3788;49.902;8.590;2023-07-30T08:45:54;24.60;98.80
7494;DHT22;3788;49.902;8.590;2023-07-30T08:48:21;24.60;98.70
7494;DHT22;3788;49.902;8.590;2023-07-30T08:50:48;24.60;98.90
7494;DHT22;3788;49.902;8.590;2023-07-30T08:53:16;24.60;98.80
7494;DHT22;3788;49.902;8.590;2023-07-30T08:55:43;24.60;97.80
7494;DHT22;3788;49.902;8.590;2023-07-30T08:58:10;24.60;98.30
7494;DHT22;3788;49.902;8.590;2023-07-30T09:00:38;24.70;98.50
7494;DHT22;3788;49.902;8.590;2023-07-30T09:03:15;24.80;98.70
7494;DHT22;3788;49.902;8.590;2023-07-30T09:05:43;25.00;98.70
7494;DHT22;3788;49.902;8.590;2023-07-30T09:08:10;25.20;98.30
7494;DHT22;3788;49.902;8.590;2023-07-30T09:10:38;25.20;98.10
7494;DHT22;3788;49.902;8.590;2023-07-30T09:13:04;25.30;98.10
7494;DHT22;3788;49.902;8.590;2023-07-30T09:15:32;25.20;98.10
7494;DHT22;3788;49.902;8.590;2023-07-30T09:17:59;25.00;98.40
7494;DHT22;3788;49.902;8.590;2023-07-30T09:20:28;24.90;98.20
7494;DHT22;3788;49.902;8.590;2023-07-30T09:22:56;24.80;94.90
7494;DHT22;3788;49.902;8.590;2023-07-30T09:25:23;24.60;94.50
7494;DHT22;3788;49.902;8.590;2023-07-30T09:27:50;24.60;93.70
7494;DHT22;3788;49.902;8.590;2023-07-30T09:30:22;24.50;93.10
7494;DHT22;3788;49.902;8.590;2023-07-30T09:32:52;24.30;93.20
7494;DHT22;3788;49.902;8.590;2023-07-30T09:35:20;24.10;93.00
7494;DHT22;3788;49.902;8.590;2023-07-30T09:37:48;23.70;93.70
7494;DHT22;3788;49.902;8.590;2023-07-30T09:40:16;23.10;96.70
7494;DHT22;3788;49.902;8.590;2023-07-30T09:42:45;22.40;99.00
7494;DHT22;3788;49.902;8.590;2023-07-30T09:45:23;21.90;99.90
7494;DHT22;3788;49.902;8.590;2023-07-30T09:47:50;21.50;99.90
7494;DHT22;3788;49.902;8.590;2023-07-30T09:50:18;21.30;99.90
7494;DHT22;3788;49.902;8.590;2023-07-30T09:52:45;21.00;99.90
7494;DHT22;3788;49.902;8.590;2023-07-30T09:55:13;20.90;99.90
7494;DHT22;3788;49.902;8.590;2023-07-30T09:57:40;20.80;99.90
7494;DHT22;3788;49.902;8.590;2023-07-30T10:00:07;20.70;99.90
7494;DHT22;3788;49.902;8.590;2023-07-30T10:02:37;20.70;99.90
7494;DHT22;3788;49.902;8.590;2023-07-30T10:05:08;20.70;99.90
7494;DHT22;3788;49.902;8.590;2023-07-30T10:07:39;20.70;99.90
7494;DHT22;3788;49.902;8.590;2023-07-30T10:10:08;20.60;99.90
7494;DHT22;3788;49.902;8.590;2023-07-30T10:12:37;20.60;99.90
7494;DHT22;3788;49.902;8.590;2023-07-30T10:15:06;20.70;99.90
7494;DHT22;3788;49.902;8.590;2023-07-30T10:17:33;20.70;99.90
7494;DHT22;3788;49.902;8.590;2023-07-30T10:20:19;20.70;99.90
7494;DHT22;3788;49.902;8.590;2023-07-30T10:22:46;20.80;99.90
7494;DHT22;3788;49.902;8.590;2023-07-30T10:25:13;21.00;99.90
7494;DHT22;3788;49.902;8.590;2023-07-30T10:27:41;21.10;97.60
7494;DHT22;3788;49.902;8.590;2023-07-30T10:30:13;21.20;96.70
7494;DHT22;3788;49.902;8.590;2023-07-30T10:32:41;21.40;95.50
7494;DHT22;3788;49.902;8.590;2023-07-30T10:35:08;21.70;95.70
7494;DHT22;3788;49.902;8.590;2023-07-30T10:37:35;22.30;95.70
7494;DHT22;3788;49.902;8.590;2023-07-30T10:40:16;22.90;94.40
7494;DHT22;3788;49.902;8.590;2023-07-30T10:42:44;23.50;94.10
7494;DHT22;3788;49.902;8.590;2023-07-30T10:45:11;23.90;93.40
7494;DHT22;3788;49.902;8.590;2023-07-30T10:47:40;24.20;92.40
7494;DHT22;3788;49.902;8.590;2023-07-30T10:50:08;24.30;91.90
7494;DHT22;3788;49.902;8.590;2023-07-30T10:52:37;24.40;91.60
7494;DHT22;3788;49.902;8.590;2023-07-30T10:55:04;24.40;90.80
7494;DHT22;3788;49.902;8.590;2023-07-30T10:57:31;24.60;88.20
7494;DHT22;3788;49.902;8.590;2023-07-30T10:59:59;24.60;86.30
7494;DHT22;3788;49.902;8.590;2023-07-30T11:02:28;24.60;84.80
7494;DHT22;3788;49.902;8.590;2023-07-30T11:04:54;24.50;84.40
7494;DHT22;3788;49.902;8.590;2023-07-30T11:07:21;24.40;84.70
7494;DHT22;3788;49.902;8.590;2023-07-30T11:09:58;24.40;82.80
7494;DHT22;3788;49.902;8.590;2023-07-30T11:12:25;24.30;81.40
7494;DHT22;3788;49.902;8.590;2023-07-30T11:15:01;24.10;81.60
7494;DHT22;3788;49.902;8.590;2023-07-30T11:17:28;24.00;81.80
7494;DHT22;3788;49.902;8.590;2023-07-30T11:19:55;23.90;82.30
7494;DHT22;3788;49.902;8.590;2023-07-30T11:22:29;23.90;83.90
7494;DHT22;3788;49.902;8.590;2023-07-30T11:24:57;24.00;83.00
7494;DHT22;3788;49.902;8.590;2023-07-30T11:27:23;23.90;81.30
7494;DHT22;3788;49.902;8.590;2023-07-30T11:29:57;23.90;81.10
7494;DHT22;3788;49.902;8.590;2023-07-30T11:32:27;24.00;81.00
7494;DHT22;3788;49.902;8.590;2023-07-30T11:34:55;24.00;80.80
7494;DHT22;3788;49.902;8.590;2023-07-30T11:37:22;24.00;81.30
7494;DHT22;3788;49.902;8.590;2023-07-30T11:39:49;24.00;81.60
7494;DHT22;3788;49.902;8.590;2023-07-30T11:42:17;23.90;81.60
7494;DHT22;3788;49.902;8.590;2023-07-30T11:44:44;23.70;81.40
7494;DHT22;3788;49.902;8.590;2023-07-30T11:47:11;23.50;82.00
7494;DHT22;3788;49.902;8.590;2023-07-30T11:49:39;23.40;82.60
7494;DHT22;3788;49.902;8.590;2023-07-30T11:52:06;23.20;80.80
7494;DHT22;3788;49.902;8.590;2023-07-30T11:54:33;22.90;81.60
7494;DHT22;3788;49.902;8.590;2023-07-30T11:57:00;22.80;81.80
7494;DHT22;3788;49.902;8.590;2023-07-30T11:59:27;22.60;81.50
7494;DHT22;3788;49.902;8.590;2023-07-30T12:01:54;22.50;82.10
7494;DHT22;3788;49.902;8.590;2023-07-30T12:04:20;22.30;82.20
7494;DHT22;3788;49.902;8.590;2023-07-30T12:06:52;22.40;83.10
7494;DHT22;3788;49.902;8.590;2023-07-30T12:09:21;22.40;82.70
7494;DHT22;3788;49.902;8.590;2023-07-30T12:11:50;22.60;79.50
7494;DHT22;3788;49.902;8.590;2023-07-30T12:14:17;22.70;78.70
7494;DHT22;3788;49.902;8.590;2023-07-30T12:16:44;22.80;77.60
7494;DHT22;3788;49.902;8.590;2023-07-30T12:19:11;22.80;76.30
7494;DHT22;3788;49.902;8.590;2023-07-30T12:21:38;22.70;76.30
7494;DHT22;3788;49.902;8.590;2023-07-30T12:24:06;22.70;76.80
7494;DHT22;3788;49.902;8.590;2023-07-30T12:26:33;22.60;76.80
7494;DHT22;3788;49.902;8.590;2023-07-30T12:29:00;22.50;77.80
7494;DHT22;3788;49.902;8.590;2023-07-30T12:31:26;22.60;77.60
7494;DHT22;3788;49.902;8.590;2023-07-30T12:33:53;22.60;78.20
7494;DHT22;3788;49.902;8.590;2023-07-30T12:36:19;22.60;78.00
7494;DHT22;3788;49.902;8.590;2023-07-30T12:38:46;22.60;77.90
7494;DHT22;3788;49.902;8.590;2023-07-30T12:41:14;22.60;77.80
7494;DHT22;3788;49.902;8.590;2023-07-30T12:43:41;22.60;77.10
7494;DHT22;3788;49.902;8.590;2023-07-30T12:46:07;22.60;76.30
7494;DHT22;3788;49.902;8.590;2023-07-30T12:48:34;22.70;76.40
7494;DHT22;3788;49.902;8.590;2023-07-30T12:51:02;22.70;76.10
7494;DHT22;3788;49.902;8.590;2023-07-30T12:53:29;22.90;73.00
7494;DHT22;3788;49.902;8.590;2023-07-30T12:55:55;22.90;70.40
7494;DHT22;3788;49.902;8.590;2023-07-30T12:58:23;22.90;71.10
7494;DHT22;3788;49.902;8.590;2023-07-30T13:00:50;22.90;71.80
7494;DHT22;3788;49.902;8.590;2023-07-30T13:03:17;22.90;71.20
7494;DHT22;3788;49.902;8.590;2023-07-30T13:05:43;22.90;70.20
7494;DHT22;3788;49.902;8.590;2023-07-30T13:08:10;22.90;69.80
7494;DHT22;3788;49.902;8.590;2023-07-30T13:10:37;22.90;70.30
7494;DHT22;3788;49.902;8.590;2023-07-30T13:13:03;22.90;70.30
7494;DHT22;3788;49.902;8.590;2023-07-30T13:15:31;22.80;71.10
7494;DHT22;3788;49.902;8.590;2023-07-30T13:17:58;22.90;72.20
7494;DHT22;3788;49.902;8.590;2023-07-30T13:20:25;22.90;71.90
7494;DHT22;3788;49.902;8.590;2023-07-30T13:22:51;22.90;72.60
7494;DHT22;3788;49.902;8.590;2023-07-30T13:25:19;23.00;72.70
7494;DHT22;3788;49.902;8.590;2023-07-30T13:27:46;23.00;72.20
7494;DHT22;3788;49.902;8.590;2023-07-30T13:30:12;23.10;71.30
7494;DHT22;3788;49.902;8.590;2023-07-30T13:32:41;23.10;71.70
7494;DHT22;3788;49.902;8.590;2023-07-30T13:35:07;23.20;70.80
7494;DHT22;3788;49.902;8.590;2023-07-30T13:37:34;23.40;70.40
7494;DHT22;3788;49.902;8.590;2023-07-30T13:40:00;23.50;70.10
7494;DHT22;3788;49.902;8.590;2023-07-30T13:42:27;23.40;69.00
7494;DHT22;3788;49.902;8.590;2023-07-30T13:44:54;23.40;68.40
7494;DHT22;3788;49.902;8.590;2023-07-30T13:47:20;23.30;69.20
7494;DHT22;3788;49.902;8.590;2023-07-30T13:49:48;23.20;69.10
7494;DHT22;3788;49.902;8.590;2023-07-30T13:52:15;23.20;69.00
7494;DHT22;3788;49.902;8.590;2023-07-30T13:54:42;23.10;69.80
7494;DHT22;3788;49.902;8.590;2023-07-30T13:57:10;23.00;70.60
7494;DHT22;3788;49.902;8.590;2023-07-30T13:59:37;23.00;70.40
7494;DHT22;3788;49.902;8.590;2023-07-30T14:02:05;22.90;71.30
7494;DHT22;3788;49.902;8.590;2023-07-30T14:04:32;23.00;71.70
7494;DHT22;3788;49.902;8.590;2023-07-30T14:07:02;23.10;71.20
7494;DHT22;3788;49.902;8.590;2023-07-30T14:09:29;23.00;71.20
7494;DHT22;3788;49.902;8.590;2023-07-30T14:11:58;23.10;70.40
7494;DHT22;3788;49.902;8.590;2023-07-30T14:14:25;23.10;69.60
7494;DHT22;3788;49.902;8.590;2023-07-30T14:16:53;23.20;70.50
7494;DHT22;3788;49.902;8.590;2023-07-30T14:19:19;23.20;70.70
7494;DHT22;3788;49.902;8.590;2023-07-30T14:21:46;23.20;69.40
7494;DHT22;3788;49.902;8.590;2023-07-30T14:24:14;23.20;69.70
7494;DHT22;3788;49.902;8.590;2023-07-30T14:26:41;23.30;70.00
7494;DHT22;3788;49.902;8.590;2023-07-30T14:29:08;23.20;70.40
7494;DHT22;3788;49.902;8.590;2023-07-30T14:31:34;23.20;69.30
7494;DHT22;3788;49.902;8.590;2023-07-30T14:34:01;23.20;70.00
7494;DHT22;3788;49.902;8.590;2023-07-30T14:36:28;23.20;70.20
7494;DHT22;3788;49.902;8.590;2023-07-30T14:38:55;23.30;69.40
7494;DHT22;3788;49.902;8.590;2023-07-30T14:41:22;23.40;69.90
7494;DHT22;3788;49.902;8.590;2023-07-30T14:43:49;23.40;70.00
7494;DHT22;3788;49.902;8.590;2023-07-30T14:46:16;23.40;69.90
7494;DHT22;3788;49.902;8.590;2023-07-30T14:48:43;23.40;69.40
7494;DHT22;3788;49.902;8.590;2023-07-30T14:51:10;23.40;70.30
7494;DHT22;3788;49.902;8.590;2023-07-30T14:53:36;23.40;69.90
7494;DHT22;3788;49.902;8.590;2023-07-30T14:56:03;23.40;69.30
7494;DHT22;3788;49.902;8.590;2023-07-30T14:58:31;23.40;69.40
7494;DHT22;3788;49.902;8.590;2023-07-30T15:00:58;23.40;70.30
7494;DHT22;3788;49.902;8.590;2023-07-30T15:03:25;23.50;69.70
7494;DHT22;3788;49.902;8.590;2023-07-30T15:05:52;23.50;68.90
7494;DHT22;3788;49.902;8.590;2023-07-30T15:08:19;23.50;70.00
7494;DHT22;3788;49.902;8.590;2023-07-30T15:10:46;23.40;69.40
7494;DHT22;3788;49.902;8.590;2023-07-30T15:13:14;23.40;70.30
7494;DHT22;3788;49.902;8.590;2023-07-30T15:15:43;23.30;69.60
7494;DHT22;3788;49.902;8.590;2023-07-30T15:18:09;23.20;70.00
7494;DHT22;3788;49.902;8.590;2023-07-30T15:20:36;23.30;70.30
7494;DHT22;3788;49.902;8.590;2023-07-30T15:23:03;23.20;70.30
7494;DHT22;3788;49.902;8.590;2023-07-30T15:25:30;23.20;71.10
7494;DHT22;3788;49.902;8.590;2023-07-30T15:27:57;23.20;71.40
7494;DHT22;3788;49.902;8.590;2023-07-30T15:30:26;23.20;71.10
7494;DHT22;3788;49.902;8.590;2023-07-30T15:32:54;23.20;70.80
7494;DHT22;3788;49.902;8.590;2023-07-30T15:35:21;23.20;70.80
7494;DHT22;3788;49.902;8.590;2023-07-30T15:37:48;23.20;70.20
7494;DHT22;3788;49.902;8.590;2023-07-30T15:40:15;23.20;70.90
7494;DHT22;3788;49.902;8.590;2023-07-30T15:42:42;23.20;69.80
7494;DHT22;3788;49.902;8.590;2023-07-30T15:45:09;23.30;70.00
7494;DHT22;3788;49.902;8.590;2023-07-30T15:47:37;23.30;70.10
7494;DHT22;3788;49.902;8.590;2023-07-30T15:50:06;23.30;70.00
7494;DHT22;3788;49.902;8.590;2023-07-30T15:52:33;23.30;69.80
7494;DHT22;3788;49.902;8.590;2023-07-30T15:55:00;23.40;67.90
7494;DHT22;3788;49.902;8.590;2023-07-30T15:57:27;23.30;67.70
7494;DHT22;3788;49.902;8.590;2023-07-30T15:59:53;23.30;66.60
7494;DHT22;3788;49.902;8.590;2023-07-30T16:02:20;23.10;66.40